sensor_id;sensor_type;location;lat;lon;timestamp;temperature;humidity
20171;DHT22;10245;51.344;6.620;2023-06-10T00:00:40;21.30;59.20
20171;DHT22;10245;51.344;6.620;2023-06-10T00:03:04;21.20;58.80
20171;DHT22;10245;51.344;6.620;2023-06-10T00:05:27;21.20;59.20
20171;DHT22;10245;51.344;6.620;2023-06-10T00:07:52;21.20;59.20
20171;DHT22;10245;51.344;6.620;2023-06-10T00:10:17;21.10;58.90
20171;DHT22;10245;51.344;6.620;2023-06-10T00:12:40;21.00;59.80
20171;DHT22;10245;51.344;6.620;2023-06-10T00:15:04;21.00;61.20
20171;DHT22;10245;51.344;6.620;2023-06-10T00:17:30;20.90;60.60
20171;DHT22;10245;51.344;6.620;2023-06-10T00:19:54;20.90;60.90
20171;DHT22;10245;51.344;6.620;2023-06-10T00:22:17;20.80;60.70
20171;DHT22;10245;51.344;6.620;2023-06-10T00:24:40;20.70;60.70
20171;DHT22;10245;51.344;6.620;2023-06-10T00:27:05;20.60;61.40
20171;DHT22;10245;51.344;6.620;2023-06-10T00:29:29;20.60;61.80
20171;DHT22;10245;51.344;6.620;2023-06-10T00:31:52;20.50;61.50
20171;DHT22;10245;51.344;6.620;2023-06-10T00:34:20;20.50;64.40
20171;DHT22;10245;51.344;6.620;2023-06-10T00:36:43;20.40;62.50
20171;DHT22;10245;51.344;6.620;2023-06-10T00:39:07;20.30;62.20
20171;DHT22;10245;51.344;6.620;2023-06-10T00:41:31;20.20;62.50
20171;DHT22;10245;51.344;6.620;2023-06-10T00:43:55;20.30;63.80
20171;DHT22;10245;51.344;6.620;2023-06-10T00:46:19;20.10;63.30
20171;DHT22;10245;51.344;6.620;2023-06-10T00:48:44;20.10;63.20
20171;DHT22;10245;51.344;6.620;2023-06-10T00:51:09;20.10;62.70
20171;DHT22;10245;51.344;6.620;2023-06-10T00:53:34;20.10;62.90
20171;DHT22;10245;51.344;6.620;2023-06-10T00:55:59;20.00;63.30
20171;DHT22;10245;51.344;6.620;2023-06-10T00:58:23;20.10;63.30
20171;DHT22;10245;51.344;6.620;2023-06-10T01:00:47;20.10;63.10
20171;DHT22;10245;51.344;6.620;2023-06-10T01:03:11;20.00;63.70
20171;DHT22;10245;51.344;6.620;2023-06-10T01:05:35;20.00;64.30
20171;DHT22;10245;51.344;6.620;2023-06-10T01:08:03;19.80;67.30
20171;DHT22;10245;51.344;6.620;2023-06-10T01:10:43;19.80;65.30
20171;DHT22;10245;51.344;6.620;2023-06-10T01:13:11;19.70;65.30
20171;DHT22;10245;51.344;6.620;2023-06-10T01:15:35;19.70;66.40
20171;DHT22;10245;51.344;6.620;2023-06-10T01:18:01;19.60;66.80
20171;DHT22;10245;51.344;6.620;2023-06-10T01:20:26;19.60;67.60
20171;DHT22;10245;51.344;6.620;2023-06-10T01:22:52;19.50;67.00
20171;DHT22;10245;51.344;6.620;2023-06-10T01:25:16;19.50;68.70
20171;DHT22;10245;51.344;6.620;2023-06-10T01:27:40;19.40;68.80
20171;DHT22;10245;51.344;6.620;2023-06-10T01:30:10;19.20;68.80
20171;DHT22;10245;51.344;6.620;2023-06-10T01:32:42;19.20;69.70
20171;DHT22;10245;51.344;6.620;2023-06-10T01:35:10;19.10;69.70
20171;DHT22;10245;51.344;6.620;2023-06-10T01:37:34;19.10;68.80
20171;DHT22;10245;51.344;6.620;2023-06-10T01:40:00;19.10;69.60
20171;DHT22;10245;51.344;6.620;2023-06-10T01:42:29;19.00;70.10
20171;DHT22;10245;51.344;6.620;2023-06-10T01:44:53;18.90;70.60
20171;DHT22;10245;51.344;6.620;2023-06-10T01:47:16;18.90;70.60
20171;DHT22;10245;51.344;6.620;2023-06-10T01:49:39;18.80;70.30
20171;DHT22;10245;51.344;6.620;2023-06-10T01:52:03;18.80;70.50
20171;DHT22;10245;51.344;6.620;2023-06-10T01:54:27;18.70;70.80
20171;DHT22;10245;51.344;6.620;2023-06-10T01:56:52;18.60;70.80
20171;DHT22;10245;51.344;6.620;2023-06-10T01:59:16;18.60;70.80
20171;DHT22;10245;51.344;6.620;2023-06-10T02:01:39;18.50;71.70
20171;DHT22;10245;51.344;6.620;2023-06-10T02:04:04;18.50;73.70
20171;DHT22;10245;51.344;6.620;2023-06-10T02:06:28;18.50;73.90
20171;DHT22;10245;51.344;6.620;2023-06-10T02:08:51;18.50;72.80
20171;DHT22;10245;51.344;6.620;2023-06-10T02:11:15;18.40;74.00
20171;DHT22;10245;51.344;6.620;2023-06-10T02:13:40;18.30;74.30
20171;DHT22;10245;51.344;6.620;2023-06-10T02:16:03;18.20;74.10
20171;DHT22;10245;51.344;6.620;2023-06-10T02:18:28;18.20;74.10
20171;DHT22;10245;51.344;6.620;2023-06-10T02:20:51;18.20;73.60
20171;DHT22;10245;51.344;6.620;2023-06-10T02:23:14;18.10;73.80
20171;DHT22;10245;51.344;6.620;2023-06-10T02:25:37;18.00;74.30
20171;DHT22;10245;51.344;6.620;2023-06-10T02:28:00;18.00;74.70
20171;DHT22;10245;51.344;6.620;2023-06-10T02:30:26;18.00;75.40
20171;DHT22;10245;51.344;6.620;2023-06-10T02:32:49;18.00;75.60
20171;DHT22;10245;51.344;6.620;2023-06-10T02:35:14;17.90;75.70
20171;DHT22;10245;51.344;6.620;2023-06-10T02:37:39;17.80;75.30
20171;DHT22;10245;51.344;6.620;2023-06-10T02:40:02;17.80;75.30
20171;DHT22;10245;51.344;6.620;2023-06-10T02:42:26;17.70;76.20
20171;DHT22;10245;51.344;6.620;2023-06-10T02:44:49;17.60;76.20
20171;DHT22;10245;51.344;6.620;2023-06-10T02:47:28;17.50;76.50
20171;DHT22;10245;51.344;6.620;2023-06-10T02:49:52;17.50;76.90
20171;DHT22;10245;51.344;6.620;2023-06-10T02:52:15;17.50;77.20
20171;DHT22;10245;51.344;6.620;2023-06-10T02:54:39;17.50;77.20
20171;DHT22;10245;51.344;6.620;2023-06-10T02:57:04;17.40;77.60
20171;DHT22;10245;51.344;6.620;2023-06-10T02:59:29;17.40;77.00
20171;DHT22;10245;51.344;6.620;2023-06-10T03:01:53;17.40;77.50
20171;DHT22;10245;51.344;6.620;2023-06-10T03:04:19;17.30;78.00
20171;DHT22;10245;51.344;6.620;2023-06-10T03:06:50;17.20;78.40
20171;DHT22;10245;51.344;6.620;2023-06-10T03:09:19;17.20;78.20
20171;DHT22;10245;51.344;6.620;2023-06-10T03:11:46;17.20;78.30
20171;DHT22;10245;51.344;6.620;2023-06-10T03:14:09;17.10;78.60
20171;DHT22;10245;51.344;6.620;2023-06-10T03:16:33;17.10;78.90
20171;DHT22;10245;51.344;6.620;2023-06-10T03:18:56;17.10;79.10
20171;DHT22;10245;51.344;6.620;2023-06-10T03:21:21;17.00;79.00
20171;DHT22;10245;51.344;6.620;2023-06-10T03:23:45;17.00;79.30
20171;DHT22;10245;51.344;6.620;2023-06-10T03:26:08;17.00;79.30
20171;DHT22;10245;51.344;6.620;2023-06-10T03:28:34;17.00;79.60
20171;DHT22;10245;51.344;6.620;2023-06-10T03:30:57;16.90;79.80
20171;DHT22;10245;51.344;6.620;2023-06-10T03:33:22;16.90;80.40
20171;DHT22;10245;51.344;6.620;2023-06-10T03:35:46;16.90;80.20
20171;DHT22;10245;51.344;6.620;2023-06-10T03:38:11;16.80;80.20
20171;DHT22;10245;51.344;6.620;2023-06-10T03:40:34;16.80;80.40
20171;DHT22;10245;51.344;6.620;2023-06-10T03:42:58;16.80;80.70
20171;DHT22;10245;51.344;6.620;2023-06-10T03:45:24;16.80;80.60
20171;DHT22;10245;51.344;6.620;2023-06-10T03:47:51;16.80;80.80
20171;DHT22;10245;51.344;6.620;2023-06-10T03:50:19;16.80;80.60
20171;DHT22;10245;51.344;6.620;2023-06-10T03:52:42;16.70;81.00
20171;DHT22;10245;51.344;6.620;2023-06-10T03:55:09;16.80;81.30
20171;DHT22;10245;51.344;6.620;2023-06-10T03:57:38;16.80;81.10
20171;DHT22;10245;51.344;6.620;2023-06-10T04:00:02;16.80;81.40
20171;DHT22;10245;51.344;6.620;2023-06-10T04:02:35;16.80;81.10
20171;DHT22;10245;51.344;6.620;2023-06-10T04:04:59;16.70;81.60
20171;DHT22;10245;51.344;6.620;2023-06-10T04:07:23;16.80;81.90
20171;DHT22;10245;51.344;6.620;2023-06-10T04:09:46;16.70;82.10
20171;DHT22;10245;51.344;6.620;2023-06-10T04:12:11;16.80;82.30
20171;DHT22;10245;51.344;6.620;2023-06-10T04:14:34;16.80;82.20
20171;DHT22;10245;51.344;6.620;2023-06-10T04:17:00;16.80;82.40
20171;DHT22;10245;51.344;6.620;2023-06-10T04:19:24;16.80;82.50
20171;DHT22;10245;51.344;6.620;2023-06-10T04:21:47;16.90;82.10
20171;DHT22;10245;51.344;6.620;2023-06-10T04:24:11;16.90;82.80
20171;DHT22;10245;51.344;6.620;2023-06-10T04:26:35;16.90;82.60
20171;DHT22;10245;51.344;6.620;2023-06-10T04:29:00;16.90;82.00
20171;DHT22;10245;51.344;6.620;2023-06-10T04:31:24;17.00;82.20
20171;DHT22;10245;51.344;6.620;2023-06-10T04:33:48;17.00;82.00
20171;DHT22;10245;51.344;6.620;2023-06-10T04:36:11;17.00;81.50
20171;DHT22;10245;51.344;6.620;2023-06-10T04:38:36;17.10;81.60
20171;DHT22;10245;51.344;6.620;2023-06-10T04:41:00;17.20;81.00
20171;DHT22;10245;51.344;6.620;2023-06-10T04:43:27;17.30;80.70
20171;DHT22;10245;51.344;6.620;2023-06-10T04:45:54;17.40;80.30
20171;DHT22;10245;51.344;6.620;2023-06-10T04:48:17;17.50;80.40
20171;DHT22;10245;51.344;6.620;2023-06-10T04:50:41;17.60;79.40
20171;DHT22;10245;51.344;6.620;2023-06-10T04:53:05;17.70;79.50
20171;DHT22;10245;51.344;6.620;2023-06-10T04:55:31;17.80;78.50
20171;DHT22;10245;51.344;6.620;2023-06-10T04:57:54;18.00;77.70
20171;DHT22;10245;51.344;6.620;2023-06-10T05:00:19;18.00;77.20
20171;DHT22;10245;51.344;6.620;2023-06-10T05:02:43;18.10;78.20
20171;DHT22;10245;51.344;6.620;2023-06-10T05:05:11;18.10;77.60
20171;DHT22;10245;51.344;6.620;2023-06-10T05:07:34;18.20;76.80
20171;DHT22;10245;51.344;6.620;2023-06-10T05:09:57;18.30;76.80
20171;DHT22;10245;51.344;6.620;2023-06-10T05:12:21;18.30;76.80
20171;DHT22;10245;51.344;6.620;2023-06-10T05:14:45;18.40;76.40
20171;DHT22;10245;51.344;6.620;2023-06-10T05:17:08;18.60;76.50
20171;DHT22;10245;51.344;6.620;2023-06-10T05:19:33;18.60;75.80
20171;DHT22;10245;51.344;6.620;2023-06-10T05:21:57;18.80;75.30
20171;DHT22;10245;51.344;6.620;2023-06-10T05:24:20;18.90;74.80
20171;DHT22;10245;51.344;6.620;2023-06-10T05:26:44;19.10;74.60
20171;DHT22;10245;51.344;6.620;2023-06-10T05:29:09;19.10;73.40
20171;DHT22;10245;51.344;6.620;2023-06-10T05:31:32;19.10;74.40
20171;DHT22;10245;51.344;6.620;2023-06-10T05:33:55;19.20;72.30
20171;DHT22;10245;51.344;6.620;2023-06-10T05:36:20;19.30;72.70
20171;DHT22;10245;51.344;6.620;2023-06-10T05:38:43;19.50;73.50
20171;DHT22;10245;51.344;6.620;2023-06-10T05:41:06;19.50;73.30
20171;DHT22;10245;51.344;6.620;2023-06-10T05:43:29;19.90;71.20
20171;DHT22;10245;51.344;6.620;2023-06-10T05:45:53;20.10;71.80
20171;DHT22;10245;51.344;6.620;2023-06-10T05:48:16;20.30;70.30
20171;DHT22;10245;51.344;6.620;2023-06-10T05:50:41;20.30;70.50
20171;DHT22;10245;51.344;6.620;2023-06-10T05:53:11;20.40;70.80
20171;DHT22;10245;51.344;6.620;2023-06-10T05:55:37;20.50;71.90
20171;DHT22;10245;51.344;6.620;2023-06-10T05:58:00;20.70;72.00
20171;DHT22;10245;51.344;6.620;2023-06-10T06:00:24;21.00;69.50
20171;DHT22;10245;51.344;6.620;2023-06-10T06:02:47;21.00;66.70
20171;DHT22;10245;51.344;6.620;2023-06-10T06:05:13;21.00;67.80
20171;DHT22;10245;51.344;6.620;2023-06-10T06:07:36;21.00;69.20
20171;DHT22;10245;51.344;6.620;2023-06-10T06:10:01;21.10;68.50
20171;DHT22;10245;51.344;6.620;2023-06-10T06:12:24;21.20;67.20
20171;DHT22;10245;51.344;6.620;2023-06-10T06:14:47;21.40;69.10
20171;DHT22;10245;51.344;6.620;2023-06-10T06:17:11;21.80;65.00
20171;DHT22;10245;51.344;6.620;2023-06-10T06:19:34;21.70;66.10
20171;DHT22;10245;51.344;6.620;2023-06-10T06:21:57;21.70;67.40
20171;DHT22;10245;51.344;6.620;2023-06-10T06:24:20;21.80;68.90
20171;DHT22;10245;51.344;6.620;2023-06-10T06:26:45;21.50;65.30
20171;DHT22;10245;51.344;6.620;2023-06-10T06:29:08;21.90;67.00
20171;DHT22;10245;51.344;6.620;2023-06-10T06:31:31;21.90;65.10
20171;DHT22;10245;51.344;6.620;2023-06-10T06:33:55;22.10;64.40
20171;DHT22;10245;51.344;6.620;2023-06-10T06:36:18;22.40;63.90
20171;DHT22;10245;51.344;6.620;2023-06-10T06:38:41;22.30;64.30
20171;DHT22;10245;51.344;6.620;2023-06-10T06:41:05;22.30;61.10
20171;DHT22;10245;51.344;6.620;2023-06-10T06:43:30;22.40;61.70
20171;DHT22;10245;51.344;6.620;2023-06-10T06:46:17;22.50;61.80
20171;DHT22;10245;51.344;6.620;2023-06-10T06:48:41;22.80;61.80
20171;DHT22;10245;51.344;6.620;2023-06-10T06:51:04;23.00;60.30
20171;DHT22;10245;51.344;6.620;2023-06-10T06:53:27;23.10;59.00
20171;DHT22;10245;51.344;6.620;2023-06-10T06:55:54;22.80;63.40
20171;DHT22;10245;51.344;6.620;2023-06-10T06:58:18;23.30;61.40
20171;DHT22;10245;51.344;6.620;2023-06-10T07:00:42;23.60;60.50
20171;DHT22;10245;51.344;6.620;2023-06-10T07:03:06;23.50;59.00
20171;DHT22;10245;51.344;6.620;2023-06-10T07:05:29;23.40;59.20
20171;DHT22;10245;51.344;6.620;2023-06-10T07:07:52;23.60;58.40
20171;DHT22;10245;51.344;6.620;2023-06-10T07:10:17;24.00;62.70
20171;DHT22;10245;51.344;6.620;2023-06-10T07:12:40;24.00;58.00
20171;DHT22;10245;51.344;6.620;2023-06-10T07:15:04;24.10;56.30
20171;DHT22;10245;51.344;6.620;2023-06-10T07:17:30;24.40;56.50
20171;DHT22;10245;51.344;6.620;2023-06-10T07:19:53;24.40;55.70
20171;DHT22;10245;51.344;6.620;2023-06-10T07:22:19;24.30;57.50
20171;DHT22;10245;51.344;6.620;2023-06-10T07:24:42;24.60;55.70
20171;DHT22;10245;51.344;6.620;2023-06-10T07:27:06;24.40;54.70
20171;DHT22;10245;51.344;6.620;2023-06-10T07:29:29;24.90;52.90
20171;DHT22;10245;51.344;6.620;2023-06-10T07:31:52;25.00;54.50
20171;DHT22;10245;51.344;6.620;2023-06-10T07:34:17;25.10;56.60
20171;DHT22;10245;51.344;6.620;2023-06-10T07:36:40;24.90;55.90
20171;DHT22;10245;51.344;6.620;2023-06-10T07:39:04;24.50;52.10
20171;DHT22;10245;51.344;6.620;2023-06-10T07:41:28;24.60;54.30
20171;DHT22;10245;51.344;6.620;2023-06-10T07:43:53;25.00;55.20
20171;DHT22;10245;51.344;6.620;2023-06-10T07:46:18;25.10;52.60
20171;DHT22;10245;51.344;6.620;2023-06-10T07:48:41;25.10;52.70
20171;DHT22;10245;51.344;6.620;2023-06-10T07:51:06;24.90;55.30
20171;DHT22;10245;51.344;6.620;2023-06-10T07:53:29;24.80;54.80
20171;DHT22;10245;51.344;6.620;2023-06-10T07:55:52;25.00;55.90
20171;DHT22;10245;51.344;6.620;2023-06-10T07:58:15;25.80;51.70
20171;DHT22;10245;51.344;6.620;2023-06-10T08:00:39;25.50;54.50
20171;DHT22;10245;51.344;6.620;2023-06-10T08:03:02;25.00;56.70
20171;DHT22;10245;51.344;6.620;2023-06-10T08:05:26;25.00;51.40
20171;DHT22;10245;51.344;6.620;2023-06-10T08:07:50;25.10;53.70
20171;DHT22;10245;51.344;6.620;2023-06-10T08:10:13;25.80;52.40
20171;DHT22;10245;51.344;6.620;2023-06-10T08:12:37;26.00;50.90
20171;DHT22;10245;51.344;6.620;2023-06-10T08:15:01;25.60;49.80
20171;DHT22;10245;51.344;6.620;2023-06-10T08:17:25;25.80;51.30
20171;DHT22;10245;51.344;6.620;2023-06-10T08:19:49;26.50;48.70
20171;DHT22;10245;51.344;6.620;2023-06-10T08:22:12;26.50;47.90
20171;DHT22;10245;51.344;6.620;2023-06-10T08:24:38;26.40;50.10
20171;DHT22;10245;51.344;6.620;2023-06-10T08:27:01;26.60;50.20
20171;DHT22;10245;51.344;6.620;2023-06-10T08:29:25;26.80;48.90
20171;DHT22;10245;51.344;6.620;2023-06-10T08:31:48;26.30;47.80
20171;DHT22;10245;51.344;6.620;2023-06-10T08:34:12;26.50;47.60
20171;DHT22;10245;51.344;6.620;2023-06-10T08:36:35;26.80;46.80
20171;DHT22;10245;51.344;6.620;2023-06-10T08:38:59;26.90;48.40
20171;DHT22;10245;51.344;6.620;2023-06-10T08:41:25;26.70;47.40
20171;DHT22;10245;51.344;6.620;2023-06-10T08:43:59;26.80;47.70
20171;DHT22;10245;51.344;6.620;2023-06-10T08:46:28;27.20;45.30
20171;DHT22;10245;51.344;6.620;2023-06-10T08:48:55;27.00;46.10
20171;DHT22;10245;51.344;6.620;2023-06-10T08:51:20;27.10;48.40
20171;DHT22;10245;51.344;6.620;2023-06-10T08:53:50;27.00;47.40
20171;DHT22;10245;51.344;6.620;2023-06-10T08:56:16;27.40;47.30
20171;DHT22;10245;51.344;6.620;2023-06-10T08:58:41;27.80;46.20
20171;DHT22;10245;51.344;6.620;2023-06-10T09:01:05;27.20;50.30
20171;DHT22;10245;51.344;6.620;2023-06-10T09:03:29;27.30;47.50
20171;DHT22;10245;51.344;6.620;2023-06-10T09:05:52;27.30;46.30
20171;DHT22;10245;51.344;6.620;2023-06-10T09:08:17;27.50;46.40
20171;DHT22;10245;51.344;6.620;2023-06-10T09:10:40;27.40;47.80
20171;DHT22;10245;51.344;6.620;2023-06-10T09:13:03;28.00;46.60
20171;DHT22;10245;51.344;6.620;2023-06-10T09:15:28;28.20;44.20
20171;DHT22;10245;51.344;6.620;2023-06-10T09:17:51;28.30;46.00
20171;DHT22;10245;51.344;6.620;2023-06-10T09:20:15;28.20;45.30
20171;DHT22;10245;51.344;6.620;2023-06-10T09:22:40;28.40;43.20
20171;DHT22;10245;51.344;6.620;2023-06-10T09:25:05;28.30;43.40
20171;DHT22;10245;51.344;6.620;2023-06-10T09:27:31;28.00;46.40
20171;DHT22;10245;51.344;6.620;2023-06-10T09:29:55;28.10;45.20
20171;DHT22;10245;51.344;6.620;2023-06-10T09:32:21;28.00;45.50
20171;DHT22;10245;51.344;6.620;2023-06-10T09:34:45;28.10;43.80
20171;DHT22;10245;51.344;6.620;2023-06-10T09:37:09;28.50;45.20
20171;DHT22;10245;51.344;6.620;2023-06-10T09:39:35;28.60;43.50
20171;DHT22;10245;51.344;6.620;2023-06-10T09:41:58;28.40;44.70
20171;DHT22;10245;51.344;6.620;2023-06-10T09:44:21;29.10;43.20
20171;DHT22;10245;51.344;6.620;2023-06-10T09:46:47;29.20;44.00
20171;DHT22;10245;51.344;6.620;2023-06-10T09:49:13;29.00;42.60
20171;DHT22;10245;51.344;6.620;2023-06-10T09:51:37;29.20;41.40
20171;DHT22;10245;51.344;6.620;2023-06-10T09:54:02;29.50;44.50
20171;DHT22;10245;51.344;6.620;2023-06-10T09:56:33;29.30;42.20
20171;DHT22;10245;51.344;6.620;2023-06-10T09:58:57;29.00;43.00
20171;DHT22;10245;51.344;6.620;2023-06-10T10:01:20;29.30;43.30
20171;DHT22;10245;51.344;6.620;2023-06-10T10:03:45;29.20;43.70
20171;DHT22;10245;51.344;6.620;2023-06-10T10:06:11;29.60;44.80
20171;DHT22;10245;51.344;6.620;2023-06-10T10:08:35;29.70;41.30
20171;DHT22;10245;51.344;6.620;2023-06-10T10:10:58;29.60;44.30
20171;DHT22;10245;51.344;6.620;2023-06-10T10:13:22;29.80;39.90
20171;DHT22;10245;51.344;6.620;2023-06-10T10:15:47;29.70;42.40
20171;DHT22;10245;51.344;6.620;2023-06-10T10:18:11;29.50;41.80
20171;DHT22;10245;51.344;6.620;2023-06-10T10:20:47;29.60;41.80
20171;DHT22;10245;51.344;6.620;2023-06-10T10:23:18;30.00;42.00
20171;DHT22;10245;51.344;6.620;2023-06-10T10:25:52;29.80;41.20
20171;DHT22;10245;51.344;6.620;2023-06-10T10:28:20;30.20;38.80
20171;DHT22;10245;51.344;6.620;2023-06-10T10:30:49;30.00;39.90
20171;DHT22;10245;51.344;6.620;2023-06-10T10:33:18;30.10;40.40
20171;DHT22;10245;51.344;6.620;2023-06-10T10:35:45;29.90;40.00
20171;DHT22;10245;51.344;6.620;2023-06-10T10:38:09;30.10;38.70
20171;DHT22;10245;51.344;6.620;2023-06-10T10:40:34;30.40;39.40
20171;DHT22;10245;51.344;6.620;2023-06-10T10:42:58;30.00;43.10
20171;DHT22;10245;51.344;6.620;2023-06-10T10:45:22;30.50;40.60
20171;DHT22;10245;51.344;6.620;2023-06-10T10:47:46;30.20;42.80
20171;DHT22;10245;51.344;6.620;2023-06-10T10:50:15;30.30;43.00
20171;DHT22;10245;51.344;6.620;2023-06-10T10:52:52;30.30;40.90
20171;DHT22;10245;51.344;6.620;2023-06-10T10:55:17;30.50;41.40
20171;DHT22;10245;51.344;6.620;2023-06-10T10:57:43;30.80;38.90
20171;DHT22;10245;51.344;6.620;2023-06-10T11:00:09;30.90;41.70
20171;DHT22;10245;51.344;6.620;2023-06-10T11:02:35;30.80;40.30
20171;DHT22;10245;51.344;6.620;2023-06-10T11:05:02;30.50;40.30
20171;DHT22;10245;51.344;6.620;2023-06-10T11:07:26;30.70;38.80
20171;DHT22;10245;51.344;6.620;2023-06-10T11:09:59;30.50;37.70
20171;DHT22;10245;51.344;6.620;2023-06-10T11:12:23;30.70;40.60
20171;DHT22;10245;51.344;6.620;2023-06-10T11:14:54;31.00;39.20
20171;DHT22;10245;51.344;6.620;2023-06-10T11:17:18;30.80;42.70
20171;DHT22;10245;51.344;6.620;2023-06-10T11:19:44;30.60;41.10
20171;DHT22;10245;51.344;6.620;2023-06-10T11:22:08;30.90;41.20
20171;DHT22;10245;51.344;6.620;2023-06-10T11:24:32;31.00;38.90
20171;DHT22;10245;51.344;6.620;2023-06-10T11:27:14;30.90;39.00
20171;DHT22;10245;51.344;6.620;2023-06-10T11:29:39;31.00;42.50
20171;DHT22;10245;51.344;6.620;2023-06-10T11:32:05;31.10;36.00
20171;DHT22;10245;51.344;6.620;2023-06-10T11:34:30;30.90;38.90
20171;DHT22;10245;51.344;6.620;2023-06-10T11:36:53;30.90;35.30
20171;DHT22;10245;51.344;6.620;2023-06-10T11:39:18;30.80;36.30
20171;DHT22;10245;51.344;6.620;2023-06-10T11:41:42;30.80;36.20
20171;DHT22;10245;51.344;6.620;2023-06-10T11:44:08;31.00;37.00
20171;DHT22;10245;51.344;6.620;2023-06-10T11:46:33;30.80;38.30
20171;DHT22;10245;51.344;6.620;2023-06-10T11:48:59;30.90;39.30
20171;DHT22;10245;51.344;6.620;2023-06-10T11:51:26;31.40;35.90
20171;DHT22;10245;51.344;6.620;2023-06-10T11:53:50;31.40;36.90
20171;DHT22;10245;51.344;6.620;2023-06-10T11:56:14;31.10;36.50
20171;DHT22;10245;51.344;6.620;2023-06-10T11:58:43;30.90;35.90
20171;DHT22;10245;51.344;6.620;2023-06-10T12:01:08;30.90;38.60
20171;DHT22;10245;51.344;6.620;2023-06-10T12:03:36;31.10;34.10
20171;DHT22;10245;51.344;6.620;2023-06-10T12:06:03;31.10;33.70
20171;DHT22;10245;51.344;6.620;2023-06-10T12:08:27;31.20;37.70
20171;DHT22;10245;51.344;6.620;2023-06-10T12:10:51;31.20;38.00
20171;DHT22;10245;51.344;6.620;2023-06-10T12:13:14;31.10;36.30
20171;DHT22;10245;51.344;6.620;2023-06-10T12:15:39;31.20;35.40
20171;DHT22;10245;51.344;6.620;2023-06-10T12:18:02;30.80;37.00
20171;DHT22;10245;51.344;6.620;2023-06-10T12:20:28;31.00;33.20
20171;DHT22;10245;51.344;6.620;2023-06-10T12:22:53;31.00;36.50
20171;DHT22;10245;51.344;6.620;2023-06-10T12:25:17;31.30;36.50
20171;DHT22;10245;51.344;6.620;2023-06-10T12:27:51;31.20;37.40
20171;DHT22;10245;51.344;6.620;2023-06-10T12:30:19;31.30;34.10
20171;DHT22;10245;51.344;6.620;2023-06-10T12:32:45;31.20;33.10
20171;DHT22;10245;51.344;6.620;2023-06-10T12:35:10;30.90;35.20
20171;DHT22;10245;51.344;6.620;2023-06-10T12:37:36;31.70;36.50
20171;DHT22;10245;51.344;6.620;2023-06-10T12:40:06;31.40;35.40
20171;DHT22;10245;51.344;6.620;2023-06-10T12:42:32;31.70;34.50
20171;DHT22;10245;51.344;6.620;2023-06-10T12:44:57;31.70;34.00
20171;DHT22;10245;51.344;6.620;2023-06-10T12:47:29;31.60;35.20
20171;DHT22;10245;51.344;6.620;2023-06-10T12:49:54;31.60;34.20
20171;DHT22;10245;51.344;6.620;2023-06-10T12:52:18;31.40;32.80
20171;DHT22;10245;51.344;6.620;2023-06-10T12:54:41;31.20;35.70
20171;DHT22;10245;51.344;6.620;2023-06-10T12:57:06;31.20;33.90
20171;DHT22;10245;51.344;6.620;2023-06-10T12:59:29;31.50;34.70
20171;DHT22;10245;51.344;6.620;2023-06-10T13:01:54;31.50;34.90
20171;DHT22;10245;51.344;6.620;2023-06-10T13:04:17;30.90;36.00
20171;DHT22;10245;51.344;6.620;2023-06-10T13:06:41;31.00;34.50
20171;DHT22;10245;51.344;6.620;2023-06-10T13:09:05;31.10;34.20
20171;DHT22;10245;51.344;6.620;2023-06-10T13:11:31;31.40;34.70
20171;DHT22;10245;51.344;6.620;2023-06-10T13:13:56;31.20;35.80
20171;DHT22;10245;51.344;6.620;2023-06-10T13:16:19;31.20;36.40
20171;DHT22;10245;51.344;6.620;2023-06-10T13:18:42;30.70;36.50
20171;DHT22;10245;51.344;6.620;2023-06-10T13:21:06;30.40;38.00
20171;DHT22;10245;51.344;6.620;2023-06-10T13:23:29;30.40;35.60
20171;DHT22;10245;51.344;6.620;2023-06-10T13:25:53;30.40;38.10
20171;DHT22;10245;51.344;6.620;2023-06-10T13:28:17;30.10;38.40
20171;DHT22;10245;51.344;6.620;2023-06-10T13:30:41;30.10;40.50
20171;DHT22;10245;51.344;6.620;2023-06-10T13:33:05;30.10;37.30
20171;DHT22;10245;51.344;6.620;2023-06-10T13:35:28;30.20;37.20
20171;DHT22;10245;51.344;6.620;2023-06-10T13:37:51;30.10;38.40
20171;DHT22;10245;51.344;6.620;2023-06-10T13:40:15;30.00;37.40
20171;DHT22;10245;51.344;6.620;2023-06-10T13:42:38;30.00;38.20
20171;DHT22;10245;51.344;6.620;2023-06-10T13:45:01;29.80;38.40
20171;DHT22;10245;51.344;6.620;2023-06-10T13:47:27;29.70;37.60
20171;DHT22;10245;51.344;6.620;2023-06-10T13:49:50;29.70;40.80
20171;DHT22;10245;51.344;6.620;2023-06-10T13:52:14;29.70;39.80
20171;DHT22;10245;51.344;6.620;2023-06-10T13:54:37;30.00;38.80
20171;DHT22;10245;51.344;6.620;2023-06-10T13:57:01;30.00;36.60
20171;DHT22;10245;51.344;6.620;2023-06-10T13:59:24;29.70;38.30
20171;DHT22;10245;51.344;6.620;2023-06-10T14:01:47;29.60;38.20
20171;DHT22;10245;51.344;6.620;2023-06-10T14:04:12;29.60;39.00
20171;DHT22;10245;51.344;6.620;2023-06-10T14:06:36;30.00;41.30
20171;DHT22;10245;51.344;6.620;2023-06-10T14:08:59;30.20;40.50
20171;DHT22;10245;51.344;6.620;2023-06-10T14:11:23;30.30;39.50
20171;DHT22;10245;51.344;6.620;2023-06-10T14:13:46;30.40;39.10
20171;DHT22;10245;51.344;6.620;2023-06-10T14:16:09;30.60;36.60
20171;DHT22;10245;51.344;6.620;2023-06-10T14:18:33;31.00;38.40
20171;DHT22;10245;51.344;6.620;2023-06-10T14:20:57;31.10;35.90
20171;DHT22;10245;51.344;6.620;2023-06-10T14:23:21;30.50;37.90
20171;DHT22;10245;51.344;6.620;2023-06-10T14:25:44;30.30;36.50
20171;DHT22;10245;51.344;6.620;2023-06-10T14:28:11;30.10;37.10
20171;DHT22;10245;51.344;6.620;2023-06-10T14:30:34;30.00;38.30
20171;DHT22;10245;51.344;6.620;2023-06-10T14:32:58;29.80;40.20
20171;DHT22;10245;51.344;6.620;2023-06-10T14:35:21;29.70;38.60
20171;DHT22;10245;51.344;6.620;2023-06-10T14:37:46;29.80;38.90
20171;DHT22;10245;51.344;6.620;2023-06-10T14:40:09;29.60;40.50
20171;DHT22;10245;51.344;6.620;2023-06-10T14:42:33;29.70;38.60
20171;DHT22;10245;51.344;6.620;2023-06-10T14:44:56;29.70;40.00
20171;DHT22;10245;51.344;6.620;2023-06-10T14:47:19;29.70;38.60
20171;DHT22;10245;51.344;6.620;2023-06-10T14:49:43;30.00;39.00
20171;DHT22;10245;51.344;6.620;2023-06-10T14:52:07;29.90;38.30
20171;DHT22;10245;51.344;6.620;2023-06-10T14:54:31;29.60;39.40
20171;DHT22;10245;51.344;6.620;2023-06-10T14:56:55;29.50;38.80
20171;DHT22;10245;51.344;6.620;2023-06-10T14:59:18;29.30;37.70
20171;DHT22;10245;51.344;6.620;2023-06-10T15:01:41;29.30;39.30
20171;DHT22;10245;51.344;6.620;2023-06-10T15:04:08;29.10;39.60
20171;DHT22;10245;51.344;6.620;2023-06-10T15:06:39;29.30;37.50
20171;DHT22;10245;51.344;6.620;2023-06-10T15:09:10;29.20;39.70
20171;DHT22;10245;51.344;6.620;2023-06-10T15:11:35;29.10;39.50
20171;DHT22;10245;51.344;6.620;2023-06-10T15:13:59;29.10;39.10